Time;durP1;ratioP1;P1;durP2;ratioP2;P2;SDS_P1;SDS_P2;PMS_P1;PMS_P2;Temp;Humidity;BMP_temperature;BMP_pressure;BME280_temperature;BME280_humidity;BME280_pressure;Samples;Min_cycle;Max_cycle;Signal;HPM_P1;HPM_P2
2022/08/09 00:01:14;;;;;;;;;;;;;;;;;;6242040;23;19911;-75
2022/08/09 00:03:39;;;;;;;;;;;;;;;;;;6242147;23;19915;-75
2022/08/09 00:06:05;;;;;;;;;;;;;;;;;;6241872;23;20268;-76
2022/08/09 00:08:31;;;;;;;;;;;;;;;;;;6240642;23;19907;-75
2022/08/09 00:10:56;;;;;;;;;;;;;;;;;;6242280;23;19963;-74
2022/08/09 00:13:22;;;;;;;;;;;;;;;;;;6241785;23;19915;-74
2022/08/09 00:15:47;;;;;;;;;;;;;;;;;;6242429;23;19914;-73
2022/08/09 00:18:13;;;;;;;;;;;;;;;;;;6189728;23;20355;-74
2022/08/09 00:27:05;;;;;;;;;;;;;;;;;;6215701;22;20381;-74
2022/08/09 00:29:31;;;;;;;;;;;;;;;;;;6211695;23;19985;-73
2022/08/09 00:31:56;;;;;;;;;;;;;;;;;;6185147;23;20257;-73
2022/08/09 00:34:22;;;;;;;;;;;;;;;;;;6159966;23;19939;-73
2022/08/09 00:36:48;;;;;;;;;;;;;;;;;;6211970;23;20325;-73
2022/08/09 00:39:14;;;;;;;;;;;;;;;;;;6211530;23;19907;-74
2022/08/09 00:41:39;;;;;;;;;;;;;;;;;;6211902;23;19962;-74
2022/08/09 00:44:05;;;;;;;;;;;;;;;;;;6211762;23;19987;-75
2022/08/09 00:46:31;;;;;;;;;;;;;;;;;;6211923;23;19907;-74
2022/08/09 00:48:56;;;;;;;;;;;;;;;;;;6211955;23;19908;-74
2022/08/09 00:51:21;;;;;;;;;;;;;;;;;;6211582;23;19916;-73
2022/08/09 00:53:47;;;;;;;;;;;;;;;;;;6185306;23;19912;-74
2022/08/09 00:56:13;;;;;;;;;;;;;;;;;;6211912;23;20205;-74
2022/08/09 00:58:38;;;;;;;;;;;;;;;;;;6212474;23;20372;-73
2022/08/09 01:01:04;;;;;;;;;;;;;;;;;;6211713;23;20011;-73
2022/08/09 01:03:30;;;;;;;;;;;;;;;;;;6211320;23;19912;-73
2022/08/09 01:05:55;;;;;;;;;;;;;;;;;;6211607;23;19907;-72
2022/08/09 01:08:21;;;;;;;;;;;;;;;;;;6159926;23;20363;-73
2022/08/09 01:10:46;;;;;;;;;;;;;;;;;;6211618;23;20410;-73
2022/08/09 01:13:12;;;;;;;;;;;;;;;;;;6211236;23;19943;-74
2022/08/09 01:15:38;;;;;;;;;;;;;;;;;;6211616;23;20002;-73
2022/08/09 01:18:04;;;;;;;;;;;;;;;;;;6213397;23;19914;-73
2022/08/09 01:20:30;;;;;;;;;;;;;;;;;;6213139;23;20321;-73
2022/08/09 01:22:55;;;;;;;;;;;;;;;;;;6213199;23;19908;-72
2022/08/09 01:25:21;;;;;;;;;;;;;;;;;;6212774;23;19947;-73
2022/08/09 01:27:46;;;;;;;;;;;;;;;;;;6212937;23;19947;-72
2022/08/09 01:30:12;;;;;;;;;;;;;;;;;;6213333;23;19908;-73
2022/08/09 01:32:37;;;;;;;;;;;;;;;;;;6213328;23;20398;-74
2022/08/09 01:35:03;;;;;;;;;;;;;;;;;;6213219;23;19942;-74
2022/08/09 01:37:29;;;;;;;;;;;;;;;;;;6211496;23;19946;-76
2022/08/09 01:39:55;;;;;;;;;;;;;;;;;;6213224;23;19907;-75
2022/08/09 01:42:20;;;;;;;;;;;;;;;;;;6213163;23;19930;-75
2022/08/09 01:44:47;;;;;;;;;;;;;;;;;;6213248;23;19908;-74
2022/08/09 01:47:13;;;;;;;;;;;;;;;;;;6213082;23;19908;-74
2022/08/09 01:49:38;;;;;;;;;;;;;;;;;;6213108;23;19990;-74
2022/08/09 01:52:04;;;;;;;;;;;;;;;;;;6213169;23;19966;-74
2022/08/09 01:54:30;;;;;;;;;;;;;;;;;;6212646;23;19912;-75
2022/08/09 01:56:56;;;;;;;;;;;;;;;;;;6213514;23;20276;-73
2022/08/09 01:59:22;;;;;;;;;;;;;;;;;;6212810;23;19908;-75
2022/08/09 02:01:47;;;;;;;;;;;;;;;;;;6213200;23;19915;-75
2022/08/09 02:04:13;;;;;;;;;;;;;;;;;;6212866;23;19908;-73
2022/08/09 02:09:23;;;;;;;;;;;;;;;;;;6212833;23;19915;-75
2022/08/09 02:11:48;;;;;;;;;;;;;;;;;;6213654;23;19915;-75
2022/08/09 02:14:14;;;;;;;;;;;;;;;;;;6213411;23;19914;-75
2022/08/09 02:16:40;;;;;;;;;;;;;;;;;;6213260;23;20416;-74
2022/08/09 02:19:06;;;;;;;;;;;;;;;;;;6213443;23;20257;-74
2022/08/09 02:21:31;;;;;;;;;;;;;;;;;;6214992;23;19912;-75
2022/08/09 02:23:57;;;;;;;;;;;;;;;;;;6190876;23;20388;-76
2022/08/09 02:26:22;;;;;;;;;;;;;;;;;;6240379;23;20303;-74
2022/08/09 02:28:48;;;;;;;;;;;;;;;;;;6249417;23;19914;-74
2022/08/09 02:31:14;;;;;;;;;;;;;;;;;;6243251;23;19923;-74
2022/08/09 02:33:39;;;;;;;;;;;;;;;;;;6243211;23;20352;-76
2022/08/09 02:36:05;;;;;;;;;;;;;;;;;;6243247;23;19929;-76
2022/08/09 02:38:31;;;;;;;;;;;;;;;;;;6242831;23;20806;-76
2022/08/09 02:40:56;;;;;;;;;;;;;;;;;;6243181;23;19942;-73
2022/08/09 02:43:22;;;;;;;;;;;;;;;;;;6242683;23;19915;-74
2022/08/09 02:45:48;;;;;;;;;;;;;;;;;;6216214;23;19908;-73
2022/08/09 02:48:14;;;;;;;;;;;;;;;;;;6242971;23;19908;-73
2022/08/09 02:50:39;;;;;;;;;;;;;;;;;;6243786;23;19994;-76
2022/08/09 02:53:05;;;;;;;;;;;;;;;;;;6242936;23;19907;-74
2022/08/09 02:55:30;;;;;;;;;;;;;;;;;;6242550;23;20315;-76
2022/08/09 02:57:56;;;;;;;;;;;;;;;;;;6242864;23;19907;-76
2022/08/09 03:00:22;;;;;;;;;;;;;;;;;;6242673;23;19938;-76
2022/08/09 03:02:47;;;;;;;;;;;;;;;;;;6242956;23;19907;-78
2022/08/09 03:05:13;;;;;;;;;;;;;;;;;;6215934;23;19923;-79
2022/08/09 03:07:39;;;;;;;;;;;;;;;;;;6242891;23;19982;-77
2022/08/09 03:10:04;;;;;;;;;;;;;;;;;;6216120;23;19914;-77
2022/08/09 03:12:30;;;;;;;;;;;;;;;;;;6242364;23;19919;-78
2022/08/09 03:14:55;;;;;;;;;;;;;;;;;;6242797;23;20404;-77
2022/08/09 03:17:21;;;;;;;;;;;;;;;;;;6242478;23;20259;-77
2022/08/09 03:19:46;;;;;;;;;;;;;;;;;;6242630;23;20316;-77
2022/08/09 03:22:12;;;;;;;;;;;;;;;;;;6242841;22;19907;-77
2022/08/09 03:24:38;;;;;;;;;;;;;;;;;;6215565;23;19907;-77
2022/08/09 03:27:04;;;;;;;;;;;;;;;;;;6242489;23;19961;-79
2022/08/09 03:29:29;;;;;;;;;;;;;;;;;;6240618;23;20280;-77
2022/08/09 03:31:55;;;;;;;;;;;;;;;;;;6242560;23;20006;-77
2022/08/09 03:34:21;;;;;;;;;;;;;;;;;;6242488;23;19908;-77
2022/08/09 03:36:47;;;;;;;;;;;;;;;;;;6242750;23;19913;-77
2022/08/09 03:39:13;;;;;;;;;;;;;;;;;;6242198;23;19915;-78
2022/08/09 03:41:38;;;;;;;;;;;;;;;;;;6215623;23;19907;-79
2022/08/09 03:44:04;;;;;;;;;;;;;;;;;;6242469;23;20256;-79
2022/08/09 03:46:29;;;;;;;;;;;;;;;;;;6242158;23;20399;-78
2022/08/09 03:48:55;;;;;;;;;;;;;;;;;;6242239;23;19961;-79
2022/08/09 03:51:21;;;;;;;;;;;;;;;;;;6242290;23;19915;-80
2022/08/09 03:53:46;;;;;;;;;;;;;;;;;;6215605;23;20332;-79
2022/08/09 03:56:12;;;;;;;;;;;;;;;;;;6242462;23;19907;-77
2022/08/09 03:58:37;;;;;;;;;;;;;;;;;;6242120;23;19998;-79
2022/08/09 04:01:03;;;;;;;;;;;;;;;;;;6242400;23;20344;-77
2022/08/09 04:03:29;;;;;;;;;;;;;;;;;;6241981;23;20006;-79
2022/08/09 04:05:54;;;;;;;;;;;;;;;;;;6242547;23;19908;-79
2022/08/09 04:08:20;;;;;;;;;;;;;;;;;;6241970;23;19994;-80
2022/08/09 04:10:46;;;;;;;;;;;;;;;;;;6242201;23;19946;-80
2022/08/09 04:13:12;;;;;;;;;;;;;;;;;;6242672;23;19991;-81
2022/08/09 04:15:38;;;;;;;;;;;;;;;;;;6242089;23;19960;-80
2022/08/09 04:18:03;;;;;;;;;;;;;;;;;;6242671;23;19907;-79
2022/08/09 04:20:29;;;;;;;;;;;;;;;;;;6215627;23;19957;-79
2022/08/09 04:22:54;;;;;;;;;;;;;;;;;;6242544;22;19986;-80
2022/08/09 04:25:20;;;;;;;;;;;;;;;;;;6242045;23;19915;-80
2022/08/09 04:27:46;;;;;;;;;;;;;;;;;;6242100;23;19923;-80
2022/08/09 04:30:11;;;;;;;;;;;;;;;;;;6242197;23;19908;-81
2022/08/09 04:32:37;;;;;;;;;;;;;;;;;;6187504;23;20009;-80
2022/08/09 04:35:03;;;;;;;;;;;;;;;;;;6240210;23;19923;-80
2022/08/09 04:37:28;;;;;;;;;;;;;;;;;;6241644;23;19907;-80
2022/08/09 04:39:54;;;;;;;;;;;;;;;;;;6243466;23;19908;-79
2022/08/09 04:42:20;;;;;;;;;;;;;;;;;;6253899;23;20410;-78
2022/08/09 04:44:45;;;;;;;;;;;;;;;;;;6241834;23;19908;-79
2022/08/09 04:47:11;;;;;;;;;;;;;;;;;;6241644;23;20359;-79
2022/08/09 04:49:37;;;;;;;;;;;;;;;;;;6241257;23;19934;-79
2022/08/09 04:52:03;;;;;;;;;;;;;;;;;;6243187;23;19951;-79
2022/08/09 04:54:29;;;;;;;;;;;;;;;;;;6242933;23;19907;-79
2022/08/09 04:56:54;;;;;;;;;;;;;;;;;;6243373;23;19990;-79
2022/08/09 04:59:20;;;;;;;;;;;;;;;;;;6243055;23;19939;-79
2022/08/09 05:01:46;;;;;;;;;;;;;;;;;;6243560;23;19907;-79
2022/08/09 05:04:11;;;;;;;;;;;;;;;;;;6243212;23;19907;-79
2022/08/09 05:06:37;;;;;;;;;;;;;;;;;;6242951;23;20375;-79
2022/08/09 05:09:03;;;;;;;;;;;;;;;;;;6243855;23;19990;-78
2022/08/09 05:11:28;;;;;;;;;;;;;;;;;;6243520;23;19915;-80
2022/08/09 05:13:54;;;;;;;;;;;;;;;;;;6243859;23;19920;-79
2022/08/09 05:16:20;;;;;;;;;;;;;;;;;;6244252;23;19915;-78
2022/08/09 05:18:46;;;;;;;;;;;;;;;;;;6243691;23;19907;-79
2022/08/09 05:21:11;;;;;;;;;;;;;;;;;;6243816;23;19990;-79
2022/08/09 05:23:37;;;;;;;;;;;;;;;;;;6243607;23;19907;-77
2022/08/09 05:26:03;;;;;;;;;;;;;;;;;;6244022;23;19915;-78
2022/08/09 05:28:28;;;;;;;;;;;;;;;;;;6244573;23;20367;-77
2022/08/09 05:30:54;;;;;;;;;;;;;;;;;;6244077;23;20267;-77
2022/08/09 05:33:19;;;;;;;;;;;;;;;;;;6244438;23;19912;-76
2022/08/09 05:35:45;;;;;;;;;;;;;;;;;;6242457;23;19914;-77
2022/08/09 05:38:11;;;;;;;;;;;;;;;;;;6244438;23;19907;-77
2022/08/09 05:40:36;;;;;;;;;;;;;;;;;;6242486;23;19911;-78
2022/08/09 05:43:02;;;;;;;;;;;;;;;;;;6245187;23;19907;-79
2022/08/09 05:45:28;;;;;;;;;;;;;;;;;;6223864;23;19908;-78
2022/08/09 05:47:53;;;;;;;;;;;;;;;;;;6255269;23;19908;-79
2022/08/09 05:50:22;;;;;;;;;;;;;;;;;;6251931;23;19914;-79
2022/08/09 05:52:48;;;;;;;;;;;;;;;;;;6242301;23;19916;-78
2022/08/09 05:55:13;;;;;;;;;;;;;;;;;;6243672;23;20395;-80
2022/08/09 05:57:39;;;;;;;;;;;;;;;;;;6243487;23;20336;-81
2022/08/09 06:00:06;;;;;;;;;;;;;;;;;;6243624;23;19908;-78
2022/08/09 06:02:36;;;;;;;;;;;;;;;;;;6243143;23;20001;-80
2022/08/09 06:05:02;;;;;;;;;;;;;;;;;;6243529;23;20368;-79
2022/08/09 06:07:28;;;;;;;;;;;;;;;;;;6243137;23;20348;-79
2022/08/09 06:09:53;;;;;;;;;;;;;;;;;;6191442;23;19907;-79
2022/08/09 06:12:19;;;;;;;;;;;;;;;;;;6243220;23;19923;-79
2022/08/09 06:14:45;;;;;;;;;;;;;;;;;;6243077;23;19934;-80
2022/08/09 06:17:10;;;;;;;;;;;;;;;;;;6243443;23;19912;-79
2022/08/09 06:19:36;;;;;;;;;;;;;;;;;;6242782;23;19914;-79
2022/08/09 06:22:02;;;;;;;;;;;;;;;;;;6243046;22;20393;-79
2022/08/09 06:24:27;;;;;;;;;;;;;;;;;;6242750;23;19908;-78
2022/08/09 06:26:53;;;;;;;;;;;;;;;;;;6243187;23;20371;-79
2022/08/09 06:29:19;;;;;;;;;;;;;;;;;;6243020;23;20267;-78
2022/08/09 06:31:44;;;;;;;;;;;;;;;;;;6251458;23;19921;-79
2022/08/09 06:34:10;;;;;;;;;;;;;;;;;;6249799;23;19953;-80
2022/08/09 06:36:36;;;;;;;;;;;;;;;;;;6243015;23;19903;-79
2022/08/09 06:39:01;;;;;;;;;;;;;;;;;;6243398;23;19915;-78
2022/08/09 06:41:27;;;;;;;;;;;;;;;;;;6242722;23;20256;-78
2022/08/09 06:43:53;;;;;;;;;;;;;;;;;;6243182;23;20344;-79
2022/08/09 06:46:18;;;;;;;;;;;;;;;;;;6243039;23;19915;-79
2022/08/09 06:48:44;;;;;;;;;;;;;;;;;;6242742;23;20268;-79
2022/08/09 06:51:10;;;;;;;;;;;;;;;;;;6242884;23;19919;-79
2022/08/09 06:53:35;;;;;;;;;;;;;;;;;;6242663;23;19977;-79
2022/08/09 06:56:01;;;;;;;;;;;;;;;;;;6242823;23;19961;-79
2022/08/09 06:58:27;;;;;;;;;;;;;;;;;;6241053;23;20339;-80
2022/08/09 07:00:53;;;;;;;;;;;;;;;;;;6242710;23;19915;-77
2022/08/09 07:03:19;;;;;;;;;;;;;;;;;;6242832;23;19908;-79
2022/08/09 07:05:44;;;;;;;;;;;;;;;;;;6242139;23;19914;-78
2022/08/09 07:08:10;;;;;;;;;;;;;;;;;;6216058;23;19911;-76
2022/08/09 07:10:35;;;;;;;;;;;;;;;;;;6242000;23;19907;-75
2022/08/09 07:13:01;;;;;;;;;;;;;;;;;;6242537;23;19915;-76
2022/08/09 07:15:27;;;;;;;;;;;;;;;;;;6242448;23;19912;-75
2022/08/09 07:17:52;;;;;;;;;;;;;;;;;;6242617;23;20359;-74
2022/08/09 07:20:18;;;;;;;;;;;;;;;;;;6242388;23;19915;-75
2022/08/09 07:22:45;;;;;;;;;;;;;;;;;;6242097;22;19908;-74
2022/08/09 07:25:11;;;;;;;;;;;;;;;;;;6242353;23;19911;-75
2022/08/09 07:27:36;;;;;;;;;;;;;;;;;;6242011;23;19920;-75
2022/08/09 07:30:02;;;;;;;;;;;;;;;;;;6242510;23;19907;-74
2022/08/09 07:32:29;;;;;;;;;;;;;;;;;;6190430;23;19978;-75
2022/08/09 07:34:55;;;;;;;;;;;;;;;;;;6242433;23;20352;-76
2022/08/09 07:37:20;;;;;;;;;;;;;;;;;;6242666;23;20261;-76
2022/08/09 07:39:46;;;;;;;;;;;;;;;;;;6242232;23;19908;-76
2022/08/09 07:42:11;;;;;;;;;;;;;;;;;;6242376;23;20367;-75
2022/08/09 07:44:37;;;;;;;;;;;;;;;;;;6241795;23;20360;-75
2022/08/09 07:47:03;;;;;;;;;;;;;;;;;;6242571;23;20033;-76
2022/08/09 07:49:28;;;;;;;;;;;;;;;;;;6242375;23;20448;-76
2022/08/09 07:51:54;;;;;;;;;;;;;;;;;;6242595;23;20304;-73
2022/08/09 07:54:20;;;;;;;;;;;;;;;;;;6242502;23;19911;-75
2022/08/09 07:56:45;;;;;;;;;;;;;;;;;;6242455;23;19907;-76
2022/08/09 07:59:11;;;;;;;;;;;;;;;;;;6215442;23;19907;-74
2022/08/09 08:01:36;;;;;;;;;;;;;;;;;;6215191;23;19908;-76
2022/08/09 08:04:02;;;;;;;;;;;;;;;;;;6242253;23;19915;-76
2022/08/09 08:06:28;;;;;;;;;;;;;;;;;;6242175;23;19977;-75
2022/08/09 08:08:53;;;;;;;;;;;;;;;;;;6242464;23;19908;-76
2022/08/09 08:11:19;;;;;;;;;;;;;;;;;;6241968;23;19961;-76
2022/08/09 08:13:45;;;;;;;;;;;;;;;;;;6215627;23;19914;-76
2022/08/09 08:16:10;;;;;;;;;;;;;;;;;;6242077;23;19910;-77
2022/08/09 08:18:36;;;;;;;;;;;;;;;;;;6241905;23;19908;-77
2022/08/09 08:21:02;;;;;;;;;;;;;;;;;;6242328;23;19914;-76
2022/08/09 08:23:27;;;;;;;;;;;;;;;;;;6243849;22;19915;-76
2022/08/09 08:25:53;;;;;;;;;;;;;;;;;;6242852;23;19922;-77
2022/08/09 08:28:20;;;;;;;;;;;;;;;;;;6244268;23;20359;-76
2022/08/09 08:30:45;;;;;;;;;;;;;;;;;;6243859;23;20355;-77
2022/08/09 08:33:11;;;;;;;;;;;;;;;;;;6217570;23;19907;-76
2022/08/09 08:35:36;;;;;;;;;;;;;;;;;;6243819;23;19937;-76
2022/08/09 08:38:02;;;;;;;;;;;;;;;;;;6244503;23;20325;-77
2022/08/09 08:40:28;;;;;;;;;;;;;;;;;;6244359;23;19934;-77
2022/08/09 08:42:53;;;;;;;;;;;;;;;;;;6244733;23;19908;-77
2022/08/09 08:45:19;;;;;;;;;;;;;;;;;;6245047;23;19908;-77
2022/08/09 08:47:45;;;;;;;;;;;;;;;;;;6244308;23;19908;-78
2022/08/09 08:50:10;;;;;;;;;;;;;;;;;;6244721;23;19911;-77
2022/08/09 08:52:36;;;;;;;;;;;;;;;;;;6244126;23;19916;-78
2022/08/09 08:55:02;;;;;;;;;;;;;;;;;;6244889;23;19904;-78
2022/08/09 08:57:28;;;;;;;;;;;;;;;;;;6244956;23;19915;-78
2022/08/09 08:59:53;;;;;;;;;;;;;;;;;;6243844;23;19907;-78
2022/08/09 09:02:22;;;;;;;;;;;;;;;;;;6245995;23;19908;-78
2022/08/09 09:04:47;;;;;;;;;;;;;;;;;;6255228;23;19908;-78
2022/08/09 09:07:14;;;;;;;;;;;;;;;;;;6229830;23;19907;-77
2022/08/09 09:09:39;;;;;;;;;;;;;;;;;;6245548;23;20341;-79
2022/08/09 09:12:05;;;;;;;;;;;;;;;;;;6243926;23;19923;-78
2022/08/09 09:14:30;;;;;;;;;;;;;;;;;;6217535;23;19911;-81
2022/08/09 09:16:57;;;;;;;;;;;;;;;;;;6245111;23;20393;-80
2022/08/09 09:19:22;;;;;;;;;;;;;;;;;;6245848;23;19959;-82
2022/08/09 09:21:47;;;;;;;;;;;;;;;;;;6218231;23;19935;-82
2022/08/09 09:24:13;;;;;;;;;;;;;;;;;;6245752;23;20332;-82
2022/08/09 09:26:39;;;;;;;;;;;;;;;;;;6244839;23;20649;-81
2022/08/09 09:29:04;;;;;;;;;;;;;;;;;;6245622;23;19914;-82
2022/08/09 09:31:30;;;;;;;;;;;;;;;;;;6218795;23;20141;-82
2022/08/09 09:33:56;;;;;;;;;;;;;;;;;;6245861;23;19914;-82
2022/08/09 09:36:21;;;;;;;;;;;;;;;;;;6246668;23;19907;-83
2022/08/09 09:38:47;;;;;;;;;;;;;;;;;;6247650;23;19908;-82
2022/08/09 09:41:12;;;;;;;;;;;;;;;;;;6246293;23;19914;-79
2022/08/09 09:43:38;;;;;;;;;;;;;;;;;;6245757;23;19907;-81
2022/08/09 09:46:04;;;;;;;;;;;;;;;;;;6245402;23;19908;-81
2022/08/09 09:48:30;;;;;;;;;;;;;;;;;;6245167;23;20424;-82
2022/08/09 09:50:56;;;;;;;;;;;;;;;;;;6244536;23;20226;-82
2022/08/09 09:53:22;;;;;;;;;;;;;;;;;;6244752;23;20002;-82
2022/08/09 09:55:47;;;;;;;;;;;;;;;;;;6244148;23;19916;-82
2022/08/09 09:58:13;;;;;;;;;;;;;;;;;;6245109;23;20395;-81
2022/08/09 10:00:38;;;;;;;;;;;;;;;;;;6217311;23;19908;-82
2022/08/09 10:03:04;;;;;;;;;;;;;;;;;;6217463;23;19933;-82
2022/08/09 10:05:30;;;;;;;;;;;;;;;;;;6243928;23;19917;-80
2022/08/09 10:07:55;;;;;;;;;;;;;;;;;;6243833;23;19931;-79
2022/08/09 10:10:21;;;;;;;;;;;;;;;;;;6243888;23;19907;-81
2022/08/09 10:12:46;;;;;;;;;;;;;;;;;;6246199;23;19964;-82
2022/08/09 10:15:14;;;;;;;;;;;;;;;;;;6226978;23;19907;-79
2022/08/09 10:17:40;;;;;;;;;;;;;;;;;;6217190;23;19968;-81
2022/08/09 10:20:06;;;;;;;;;;;;;;;;;;6243635;23;19954;-81
2022/08/09 10:22:31;;;;;;;;;;;;;;;;;;6243934;22;19938;-80
2022/08/09 10:24:57;;;;;;;;;;;;;;;;;;6242932;23;20347;-80
2022/08/09 10:27:23;;;;;;;;;;;;;;;;;;6243451;23;19943;-80
2022/08/09 10:29:48;;;;;;;;;;;;;;;;;;6243252;23;19907;-80
2022/08/09 10:32:14;;;;;;;;;;;;;;;;;;6243608;23;20022;-81
2022/08/09 10:34:41;;;;;;;;;;;;;;;;;;6243307;23;19930;-81
2022/08/09 10:37:07;;;;;;;;;;;;;;;;;;6216482;23;19907;-79
2022/08/09 10:39:32;;;;;;;;;;;;;;;;;;6243361;23;20345;-80
2022/08/09 10:41:58;;;;;;;;;;;;;;;;;;6242917;23;19915;-79
2022/08/09 10:44:24;;;;;;;;;;;;;;;;;;6243469;23;19990;-80
2022/08/09 10:46:49;;;;;;;;;;;;;;;;;;6243031;23;20252;-79
2022/08/09 10:49:15;;;;;;;;;;;;;;;;;;6243226;23;19990;-79
2022/08/09 10:51:41;;;;;;;;;;;;;;;;;;6242480;23;20187;-79
2022/08/09 10:54:09;;;;;;;;;;;;;;;;;;6243492;23;19998;-79
2022/08/09 10:56:35;;;;;;;;;;;;;;;;;;6216107;23;19908;-80
2022/08/09 10:59:02;;;;;;;;;;;;;;;;;;6243015;23;20324;-80
2022/08/09 11:01:27;;;;;;;;;;;;;;;;;;6243354;23;19994;-80
2022/08/09 11:03:53;;;;;;;;;;;;;;;;;;6243027;23;19942;-80
2022/08/09 11:06:19;;;;;;;;;;;;;;;;;;6242992;23;19908;-79
2022/08/09 11:08:45;;;;;;;;;;;;;;;;;;6243028;23;19912;-80
2022/08/09 11:11:10;;;;;;;;;;;;;;;;;;6242967;23;20007;-78
2022/08/09 11:13:36;;;;;;;;;;;;;;;;;;6243504;23;19908;-81
2022/08/09 11:16:02;;;;;;;;;;;;;;;;;;6242596;23;19930;-80
2022/08/09 11:18:27;;;;;;;;;;;;;;;;;;6242934;23;19914;-79
2022/08/09 11:20:53;;;;;;;;;;;;;;;;;;6242453;23;20263;-80
2022/08/09 11:23:19;;;;;;;;;;;;;;;;;;6242679;22;19914;-81
2022/08/09 11:25:44;;;;;;;;;;;;;;;;;;6242434;23;19962;-79
2022/08/09 11:28:10;;;;;;;;;;;;;;;;;;6243087;23;19911;-81
2022/08/09 11:30:36;;;;;;;;;;;;;;;;;;6242850;23;19907;-80
2022/08/09 11:33:02;;;;;;;;;;;;;;;;;;6242890;23;20398;-80
2022/08/09 11:35:27;;;;;;;;;;;;;;;;;;6240724;23;19907;-79
2022/08/09 11:37:53;;;;;;;;;;;;;;;;;;6242571;23;19907;-79
2022/08/09 11:40:19;;;;;;;;;;;;;;;;;;6242700;23;20280;-80
2022/08/09 11:42:45;;;;;;;;;;;;;;;;;;6215839;23;19953;-80
2022/08/09 11:45:11;;;;;;;;;;;;;;;;;;6242819;23;19911;-79
2022/08/09 11:47:37;;;;;;;;;;;;;;;;;;6242787;23;19990;-78
2022/08/09 11:50:03;;;;;;;;;;;;;;;;;;6242490;23;20190;-79
2022/08/09 11:52:30;;;;;;;;;;;;;;;;;;6242647;23;20018;-79
2022/08/09 11:54:55;;;;;;;;;;;;;;;;;;6242192;23;19908;-80
2022/08/09 11:57:21;;;;;;;;;;;;;;;;;;6243056;23;19908;-79
2022/08/09 11:59:47;;;;;;;;;;;;;;;;;;6242316;23;19908;-80
2022/08/09 12:02:12;;;;;;;;;;;;;;;;;;6242941;23;19907;-81
2022/08/09 12:04:38;;;;;;;;;;;;;;;;;;6252603;23;19923;-77
2022/08/09 12:07:05;;;;;;;;;;;;;;;;;;6218038;23;20407;-79
2022/08/09 12:09:30;;;;;;;;;;;;;;;;;;6244465;23;20023;-78
2022/08/09 12:11:56;;;;;;;;;;;;;;;;;;6252122;23;19915;-79
2022/08/09 12:14:22;;;;;;;;;;;;;;;;;;6258092;23;19914;-80
2022/08/09 12:16:47;;;;;;;;;;;;;;;;;;6250542;23;19907;-80
2022/08/09 12:19:13;;;;;;;;;;;;;;;;;;6242837;23;19986;-80
2022/08/09 12:21:38;;;;;;;;;;;;;;;;;;6242427;22;19907;-80
2022/08/09 12:24:04;;;;;;;;;;;;;;;;;;6242504;23;19907;-78
2022/08/09 12:26:30;;;;;;;;;;;;;;;;;;6242535;23;20454;-80
2022/08/09 12:28:56;;;;;;;;;;;;;;;;;;6242277;23;20363;-79
2022/08/09 12:31:22;;;;;;;;;;;;;;;;;;6242160;23;20264;-79
2022/08/09 12:33:47;;;;;;;;;;;;;;;;;;6242284;23;19937;-81
2022/08/09 12:36:13;;;;;;;;;;;;;;;;;;6242202;23;19907;-79
2022/08/09 12:38:39;;;;;;;;;;;;;;;;;;6242377;23;19907;-80
2022/08/09 12:41:04;;;;;;;;;;;;;;;;;;6217025;23;19910;-78
2022/08/09 12:43:30;;;;;;;;;;;;;;;;;;6242240;23;19911;-79
2022/08/09 12:45:56;;;;;;;;;;;;;;;;;;6241951;23;19907;-79
2022/08/09 12:48:21;;;;;;;;;;;;;;;;;;6242874;23;19961;-79
2022/08/09 12:50:47;;;;;;;;;;;;;;;;;;6242040;23;20360;-80
2022/08/09 12:53:12;;;;;;;;;;;;;;;;;;6242467;23;19915;-79
2022/08/09 12:55:38;;;;;;;;;;;;;;;;;;6242218;23;19908;-80
2022/08/09 12:58:04;;;;;;;;;;;;;;;;;;6242104;23;19986;-79
2022/08/09 13:00:33;;;;;;;;;;;;;;;;;;6242471;23;19908;-78
2022/08/09 13:02:59;;;;;;;;;;;;;;;;;;6242286;23;19907;-79
2022/08/09 13:05:25;;;;;;;;;;;;;;;;;;6241038;23;20370;-79
2022/08/09 13:07:51;;;;;;;;;;;;;;;;;;6242064;23;19918;-79
2022/08/09 13:10:16;;;;;;;;;;;;;;;;;;6242253;23;19935;-79
2022/08/09 13:12:42;;;;;;;;;;;;;;;;;;6243602;23;20163;-79
2022/08/09 13:15:08;;;;;;;;;;;;;;;;;;6242004;23;19911;-80
2022/08/09 13:17:33;;;;;;;;;;;;;;;;;;6244110;23;19911;-79
2022/08/09 13:19:59;;;;;;;;;;;;;;;;;;6244133;23;19985;-81
2022/08/09 13:22:24;;;;;;;;;;;;;;;;;;6244172;22;19938;-79
2022/08/09 13:24:50;;;;;;;;;;;;;;;;;;6243919;23;19916;-80
2022/08/09 13:27:16;;;;;;;;;;;;;;;;;;6243775;23;20271;-80
2022/08/09 13:29:42;;;;;;;;;;;;;;;;;;6217282;23;19987;-79
2022/08/09 13:32:08;;;;;;;;;;;;;;;;;;6243726;23;20411;-80
2022/08/09 13:34:33;;;;;;;;;;;;;;;;;;6242294;23;19996;-80
2022/08/09 13:36:59;;;;;;;;;;;;;;;;;;6243693;23;19912;-79
2022/08/09 13:39:25;;;;;;;;;;;;;;;;;;6244551;23;19911;-79
2022/08/09 13:41:50;;;;;;;;;;;;;;;;;;6243844;23;19911;-80
2022/08/09 13:44:16;;;;;;;;;;;;;;;;;;6244170;23;20002;-80
2022/08/09 13:46:42;;;;;;;;;;;;;;;;;;6243925;23;19986;-80
2022/08/09 13:49:07;;;;;;;;;;;;;;;;;;6244011;23;19908;-80
2022/08/09 13:51:33;;;;;;;;;;;;;;;;;;6241887;23;20268;-79
2022/08/09 13:53:58;;;;;;;;;;;;;;;;;;6225950;23;19912;-81
2022/08/09 13:56:24;;;;;;;;;;;;;;;;;;6245541;23;19911;-79
2022/08/09 13:58:52;;;;;;;;;;;;;;;;;;6243728;23;20248;-80
2022/08/09 14:01:18;;;;;;;;;;;;;;;;;;6244005;23;19939;-79
2022/08/09 14:03:43;;;;;;;;;;;;;;;;;;6243719;23;20335;-80
2022/08/09 14:06:09;;;;;;;;;;;;;;;;;;6243116;23;20248;-78
2022/08/09 14:08:35;;;;;;;;;;;;;;;;;;6243377;23;20340;-79
2022/08/09 14:11:01;;;;;;;;;;;;;;;;;;6242998;23;19986;-80
2022/08/09 14:13:26;;;;;;;;;;;;;;;;;;6243465;23;19974;-78
2022/08/09 14:15:51;;;;;;;;;;;;;;;;;;6242967;23;19931;-81
2022/08/09 14:18:17;;;;;;;;;;;;;;;;;;6243637;23;19911;-79
2022/08/09 14:20:43;;;;;;;;;;;;;;;;;;6216459;23;19907;-79
2022/08/09 14:23:09;;;;;;;;;;;;;;;;;;6242729;22;19987;-80
2022/08/09 14:25:34;;;;;;;;;;;;;;;;;;6242535;23;19907;-80
2022/08/09 14:28:00;;;;;;;;;;;;;;;;;;6215925;23;20657;-80
2022/08/09 14:30:26;;;;;;;;;;;;;;;;;;6242832;23;20315;-79
2022/08/09 14:32:51;;;;;;;;;;;;;;;;;;6243723;23;19916;-78
2022/08/09 14:35:17;;;;;;;;;;;;;;;;;;6243185;23;19994;-80
2022/08/09 14:37:42;;;;;;;;;;;;;;;;;;6242909;23;19942;-80
2022/08/09 14:40:08;;;;;;;;;;;;;;;;;;6243117;23;19908;-80
2022/08/09 14:42:34;;;;;;;;;;;;;;;;;;6241689;23;20558;-81
2022/08/09 14:45:00;;;;;;;;;;;;;;;;;;6216476;23;20402;-79
2022/08/09 14:47:25;;;;;;;;;;;;;;;;;;6242861;23;19931;-80
2022/08/09 14:49:51;;;;;;;;;;;;;;;;;;6243150;23;19908;-80
2022/08/09 14:52:17;;;;;;;;;;;;;;;;;;6241267;23;19949;-81
2022/08/09 14:54:42;;;;;;;;;;;;;;;;;;6216418;23;19907;-80
2022/08/09 14:57:08;;;;;;;;;;;;;;;;;;6242949;23;19908;-81
2022/08/09 14:59:34;;;;;;;;;;;;;;;;;;6243171;23;19994;-80
2022/08/09 15:01:59;;;;;;;;;;;;;;;;;;6242841;23;19907;-79
2022/08/09 15:04:25;;;;;;;;;;;;;;;;;;6243537;23;19911;-80
2022/08/09 15:06:50;;;;;;;;;;;;;;;;;;6242736;23;19912;-79
2022/08/09 15:09:16;;;;;;;;;;;;;;;;;;6244136;23;19997;-78
2022/08/09 15:11:42;;;;;;;;;;;;;;;;;;6253999;23;19919;-79
2022/08/09 15:14:07;;;;;;;;;;;;;;;;;;6255451;23;19919;-81
2022/08/09 15:16:33;;;;;;;;;;;;;;;;;;6246819;23;19914;-80
2022/08/09 15:18:59;;;;;;;;;;;;;;;;;;6242576;23;20337;-80
2022/08/09 15:21:26;;;;;;;;;;;;;;;;;;6242687;22;19918;-80
2022/08/09 15:23:52;;;;;;;;;;;;;;;;;;6241307;23;19915;-77
2022/08/09 15:26:18;;;;;;;;;;;;;;;;;;6242162;23;19915;-80
2022/08/09 15:28:43;;;;;;;;;;;;;;;;;;6241256;23;19953;-80
2022/08/09 15:31:09;;;;;;;;;;;;;;;;;;6242615;23;20390;-80
2022/08/09 15:33:34;;;;;;;;;;;;;;;;;;6242707;23;20267;-80
2022/08/09 15:36:00;;;;;;;;;;;;;;;;;;6241936;23;19994;-80
2022/08/09 15:38:26;;;;;;;;;;;;;;;;;;6242772;23;19907;-81
2022/08/09 15:40:51;;;;;;;;;;;;;;;;;;6242741;23;19911;-79
2022/08/09 15:43:17;;;;;;;;;;;;;;;;;;6249420;23;19914;-79
2022/08/09 15:45:43;;;;;;;;;;;;;;;;;;6246258;23;19982;-80
2022/08/09 15:48:08;;;;;;;;;;;;;;;;;;6242470;23;19942;-80
2022/08/09 15:50:34;;;;;;;;;;;;;;;;;;6242662;23;19965;-80
2022/08/09 15:53:00;;;;;;;;;;;;;;;;;;6242170;23;19938;-81
2022/08/09 15:55:25;;;;;;;;;;;;;;;;;;6215483;23;19930;-79
2022/08/09 15:57:51;;;;;;;;;;;;;;;;;;6215404;23;19918;-81
2022/08/09 16:00:17;;;;;;;;;;;;;;;;;;6215184;23;19958;-79
2022/08/09 16:02:42;;;;;;;;;;;;;;;;;;6242058;23;19907;-79
2022/08/09 16:05:08;;;;;;;;;;;;;;;;;;6242066;23;19914;-79
2022/08/09 16:07:34;;;;;;;;;;;;;;;;;;6241973;23;19930;-79
2022/08/09 16:10:00;;;;;;;;;;;;;;;;;;6242185;23;19978;-81
2022/08/09 16:12:25;;;;;;;;;;;;;;;;;;6242144;23;19937;-80
2022/08/09 16:14:51;;;;;;;;;;;;;;;;;;6242799;23;19916;-80
2022/08/09 16:17:16;;;;;;;;;;;;;;;;;;6242918;23;19908;-80
2022/08/09 16:19:42;;;;;;;;;;;;;;;;;;6241744;23;19981;-80
2022/08/09 16:22:07;;;;;;;;;;;;;;;;;;6240919;22;19938;-80
2022/08/09 16:24:33;;;;;;;;;;;;;;;;;;6241678;23;20285;-79
2022/08/09 16:26:59;;;;;;;;;;;;;;;;;;6241226;23;19916;-80
2022/08/09 16:29:25;;;;;;;;;;;;;;;;;;6241344;23;20316;-79
2022/08/09 16:31:51;;;;;;;;;;;;;;;;;;6240755;23;19919;-78
2022/08/09 16:34:16;;;;;;;;;;;;;;;;;;6237227;23;19942;-80
2022/08/09 16:36:42;;;;;;;;;;;;;;;;;;6239260;23;20360;-79
2022/08/09 16:39:07;;;;;;;;;;;;;;;;;;6241425;23;19914;-80
2022/08/09 16:41:33;;;;;;;;;;;;;;;;;;6241407;23;20022;-79
2022/08/09 16:43:59;;;;;;;;;;;;;;;;;;6240445;23;19973;-80